createdAt,value
2023-03-08T00:03:44.597Z,95867.75
2023-03-08T00:08:39.620Z,95879.28
2023-03-08T00:13:33.254Z,95892.97
2023-03-08T00:18:26.541Z,95890.00
2023-03-08T00:23:19.834Z,95896.69
2023-03-08T00:28:14.548Z,95900.97
2023-03-08T00:33:07.873Z,95912.50
2023-03-08T00:38:01.105Z,95903.97
2023-03-08T00:42:54.365Z,95898.34
2023-03-08T00:47:49.056Z,95883.28
2023-03-08T00:52:42.386Z,95882.47
2023-03-08T00:57:35.696Z,95871.59
2023-03-08T01:02:29.045Z,95866.22
2023-03-08T01:07:26.553Z,95847.72
2023-03-08T01:12:22.720Z,95843.78
2023-03-08T01:17:16.019Z,95838.34
2023-03-08T01:22:09.348Z,95836.03
2023-03-08T01:27:04.049Z,95825.00
2023-03-08T01:31:57.375Z,95813.72
2023-03-08T01:36:50.657Z,95808.66
2023-03-08T01:41:44.016Z,95798.09
2023-03-08T01:46:38.960Z,95789.97
2023-03-08T01:51:41.209Z,95775.84
2023-03-08T01:56:36.656Z,95777.53
2023-03-08T02:01:30.725Z,95767.28
2023-03-08T02:06:25.572Z,95753.91
2023-03-08T02:11:21.753Z,95742.31
2023-03-08T02:16:17.896Z,95737.00
2023-03-08T02:21:11.178Z,95727.34
2023-03-08T02:26:07.040Z,95733.56
2023-03-08T02:31:00.478Z,95727.72
2023-03-08T02:35:54.209Z,95723.03
2023-03-08T02:40:51.451Z,95724.03
2023-03-08T02:45:46.717Z,95716.03
2023-03-08T02:50:40.080Z,95710.78
2023-03-08T02:55:36.129Z,95710.25
2023-03-08T03:00:29.500Z,95704.06
2023-03-08T03:05:24.212Z,95698.56
2023-03-08T03:10:17.855Z,95680.25
2023-03-08T03:15:13.198Z,95659.50
2023-03-08T03:20:11.499Z,95658.88
2023-03-08T03:25:07.507Z,95649.56
2023-03-08T03:30:00.738Z,95636.59
2023-03-08T03:34:54.234Z,95626.41
2023-03-08T03:39:47.537Z,95618.00
2023-03-08T03:44:42.533Z,95605.06
2023-03-08T03:49:35.892Z,95582.53
2023-03-08T03:54:29.828Z,95586.31
2023-03-08T03:59:25.626Z,95586.13
2023-03-08T04:04:21.584Z,95573.44
2023-03-08T04:09:18.247Z,95574.13
2023-03-08T04:14:12.324Z,95574.50
2023-03-08T04:19:09.151Z,95565.63
2023-03-08T04:24:03.905Z,95561.56
2023-03-08T04:28:57.489Z,95539.75
2023-03-08T04:33:52.353Z,95548.53
2023-03-08T04:38:47.035Z,95543.84
2023-03-08T04:43:45.428Z,95540.31
2023-03-08T04:48:39.355Z,95528.03
2023-03-08T04:53:33.812Z,95515.50
2023-03-08T04:58:27.644Z,95511.53
2023-03-08T05:03:22.503Z,95509.16
2023-03-08T05:08:16.317Z,95520.47
2023-03-08T05:13:09.846Z,95521.94
2023-03-08T05:18:03.135Z,95504.91
2023-03-08T05:22:59.425Z,95516.81
2023-03-08T05:27:54.453Z,95508.28
2023-03-08T05:32:47.798Z,95506.78
2023-03-08T05:37:41.211Z,95492.59
2023-03-08T05:42:36.028Z,95478.78
2023-03-08T05:47:30.488Z,95471.53
2023-03-08T05:52:23.822Z,95474.69
2023-03-08T05:57:17.169Z,95482.78
2023-03-08T06:02:11.841Z,95478.31
2023-03-08T06:07:05.429Z,95459.19
2023-03-08T06:11:58.755Z,95461.50
2023-03-08T06:16:52.054Z,95467.47
2023-03-08T06:21:46.708Z,95467.50
2023-03-08T06:26:40.003Z,95462.84
2023-03-08T06:31:33.284Z,95445.44
2023-03-08T06:36:26.625Z,95427.66
2023-03-08T06:41:22.363Z,95442.28
2023-03-08T06:46:18.443Z,95432.97
2023-03-08T06:51:12.197Z,95433.69
2023-03-08T06:56:07.217Z,95406.19
2023-03-08T07:01:04.312Z,95407.25
2023-03-08T07:06:01.369Z,95393.19
2023-03-08T07:10:54.728Z,95382.56
2023-03-08T07:15:48.076Z,95400.84
2023-03-08T07:20:42.971Z,95408.84
2023-03-08T07:25:38.955Z,95402.97
2023-03-08T07:30:32.300Z,95387.84
2023-03-08T07:35:25.709Z,95395.63
2023-03-08T07:40:21.068Z,95371.47
2023-03-08T07:45:15.539Z,95369.22
2023-03-08T07:50:10.792Z,95371.06
2023-03-08T07:55:04.334Z,95357.28
2023-03-08T07:59:59.010Z,95342.72
2023-03-08T08:04:52.371Z,95349.31
2023-03-08T08:09:45.714Z,95363.34
2023-03-08T08:14:39.251Z,95369.63
2023-03-08T08:19:33.948Z,95367.06
2023-03-08T08:24:27.904Z,95364.16
2023-03-08T08:29:21.628Z,95358.13
2023-03-08T08:34:15.082Z,95360.19
2023-03-08T08:39:09.927Z,95344.09
2023-03-08T08:44:04.072Z,95360.03
2023-03-08T08:48:58.962Z,95335.91
2023-03-08T08:53:52.713Z,95327.81
2023-03-08T08:58:48.237Z,95305.50
2023-03-08T09:03:41.600Z,95317.56
2023-03-08T09:08:34.979Z,95305.22
2023-03-08T09:13:28.427Z,95313.75
2023-03-08T09:18:23.323Z,95310.19
2023-03-08T09:23:16.708Z,95313.78
2023-03-08T09:28:10.333Z,95302.28
2023-03-08T09:33:04.093Z,95306.38
2023-03-08T09:37:59.868Z,95313.22
2023-03-08T09:42:56.645Z,95312.00
2023-03-08T09:47:56.878Z,95291.28
2023-03-08T09:52:57.279Z,95283.59
2023-03-08T09:57:56.907Z,95284.69
2023-03-08T10:03:07.008Z,95282.69
2023-03-08T10:08:10.172Z,95266.25
2023-03-08T10:13:29.905Z,95272.22
2023-03-08T10:18:36.480Z,95272.59
2023-03-08T10:23:32.656Z,95298.84
2023-03-08T10:28:28.830Z,95289.44
2023-03-08T10:33:25.482Z,95276.31
2023-03-08T10:38:19.157Z,95269.47
2023-03-08T10:43:26.279Z,95277.91
2023-03-08T10:48:22.628Z,95277.09
2023-03-08T10:53:22.797Z,95281.63
2023-03-08T10:58:32.442Z,95285.44
2023-03-08T11:03:28.947Z,95282.22
2023-03-08T11:08:27.446Z,95280.44
2023-03-08T11:13:31.735Z,95279.25
2023-03-08T11:18:51.142Z,95283.00
2023-03-08T11:23:52.605Z,95286.66
2023-03-08T11:29:07.151Z,95284.06
2023-03-08T11:34:39.766Z,95293.47
2023-03-08T11:39:40.620Z,95281.50
2023-03-08T11:45:00.932Z,95280.88
2023-03-08T11:50:12.938Z,95282.75
2023-03-08T11:55:36.721Z,95298.81
2023-03-08T12:00:37.184Z,95288.94
2023-03-08T12:05:36.948Z,95292.88
2023-03-08T12:10:44.673Z,95289.53
2023-03-08T12:15:48.231Z,95295.28
2023-03-08T12:20:45.826Z,95283.97
2023-03-08T12:25:44.604Z,95304.72
2023-03-08T12:30:55.967Z,95303.03
2023-03-08T12:35:59.430Z,95302.50
2023-03-08T12:40:55.379Z,95306.28
2023-03-08T12:46:03.478Z,95297.28
2023-03-08T12:51:09.419Z,95302.88
2023-03-08T12:56:28.598Z,95310.31
2023-03-08T13:01:37.079Z,95299.34
2023-03-08T13:07:23.406Z,95297.00
2023-03-08T13:12:35.378Z,95290.97
2023-03-08T13:17:39.528Z,95284.78
2023-03-08T13:22:47.821Z,95276.09
2023-03-08T13:27:55.424Z,95277.91
2023-03-08T13:32:51.262Z,95276.78
2023-03-08T13:37:55.171Z,95271.84
2023-03-08T13:42:56.702Z,95261.53
2023-03-08T13:47:51.301Z,95265.00
2023-03-08T13:52:46.361Z,95256.19
2023-03-08T13:57:42.270Z,95248.63
2023-03-08T14:02:35.671Z,95249.09
2023-03-08T14:07:32.198Z,95250.06
2023-03-08T14:12:32.095Z,95242.50
2023-03-08T14:17:29.273Z,95223.66
2023-03-08T14:22:38.275Z,95192.06
2023-03-08T14:27:42.551Z,95183.03
2023-03-08T14:32:36.043Z,95182.34
2023-03-08T14:37:32.451Z,95183.03
2023-03-08T14:42:32.106Z,95188.94
2023-03-08T14:47:29.975Z,95188.63
2023-03-08T14:52:23.337Z,95178.28
2023-03-08T14:57:21.502Z,95175.19
2023-03-08T15:02:18.069Z,95162.56
2023-03-08T15:07:21.155Z,95163.38
2023-03-08T15:12:14.588Z,95169.78
2023-03-08T15:17:07.952Z,95159.94
2023-03-08T15:22:01.986Z,95138.75
2023-03-08T15:26:57.277Z,95135.81
2023-03-08T15:31:50.520Z,95146.63
2023-03-08T15:36:43.765Z,95153.38
2023-03-08T15:41:37.041Z,95170.94
2023-03-08T15:46:31.800Z,95152.22
2023-03-08T15:51:32.869Z,95130.75
2023-03-08T15:56:26.663Z,95117.59
2023-03-08T16:01:20.729Z,95122.78
2023-03-08T16:06:17.614Z,95108.00
2023-03-08T16:11:13.575Z,95084.75
2023-03-08T16:16:08.354Z,95088.00
2023-03-08T16:21:02.142Z,95089.81
2023-03-08T16:26:15.322Z,95102.16
2023-03-08T16:31:10.205Z,95100.63
2023-03-08T16:36:03.784Z,95099.25
2023-03-08T16:41:12.212Z,95097.53
2023-03-08T16:46:06.835Z,95121.00
2023-03-08T16:51:01.136Z,95120.53
2023-03-08T16:55:55.302Z,95136.34
2023-03-08T17:00:50.314Z,95137.31
2023-03-08T17:05:45.876Z,95135.50
2023-03-08T17:10:40.304Z,95149.03
2023-03-08T17:15:40.806Z,95140.72
2023-03-08T17:20:36.497Z,95150.66
2023-03-08T17:25:29.868Z,95139.63
2023-03-08T17:30:23.889Z,95145.97
2023-03-08T17:35:17.343Z,95147.19
2023-03-08T17:40:15.011Z,95136.59
2023-03-08T17:45:09.868Z,95133.31
2023-03-08T17:50:03.879Z,95115.31
2023-03-08T17:54:57.256Z,95137.09
2023-03-08T17:59:54.004Z,95135.56
2023-03-08T18:04:49.343Z,95142.78
2023-03-08T18:09:42.974Z,95144.94
2023-03-08T18:14:39.982Z,95136.00
2023-03-08T18:19:35.643Z,95140.56
2023-03-08T18:24:29.472Z,95128.59
2023-03-08T18:29:22.869Z,95111.81
2023-03-08T18:34:16.300Z,95117.63
2023-03-08T18:39:14.772Z,95094.41
2023-03-08T18:44:08.423Z,95096.88
2023-03-08T18:49:05.995Z,95081.84
2023-03-08T18:54:00.493Z,95083.16
2023-03-08T18:59:02.981Z,95085.44
2023-03-08T19:04:06.388Z,95083.28
2023-03-08T19:08:59.827Z,95080.00
2023-03-08T19:13:55.350Z,95085.31
2023-03-08T19:18:51.292Z,95074.19
2023-03-08T19:23:45.107Z,95072.91
2023-03-08T19:28:38.685Z,95067.09
2023-03-08T19:33:33.532Z,95070.47
2023-03-08T19:38:26.994Z,95077.00
2023-03-08T19:43:20.330Z,95087.09
2023-03-08T19:48:17.095Z,95079.41
2023-03-08T19:53:13.027Z,95079.78
2023-03-08T19:58:09.363Z,95060.59
2023-03-08T20:03:02.762Z,95071.31
2023-03-08T20:07:56.147Z,95064.31
2023-03-08T20:12:52.609Z,95052.44
2023-03-08T20:17:48.265Z,95040.78
2023-03-08T20:22:42.353Z,95032.56
2023-03-08T20:27:37.660Z,95031.44
2023-03-08T20:32:32.781Z,95045.81
2023-03-08T20:37:26.362Z,95023.03
2023-03-08T20:42:22.318Z,95036.66
2023-03-08T20:47:16.013Z,95044.56
2023-03-08T20:52:13.656Z,95032.66
2023-03-08T20:57:06.980Z,95012.91
2023-03-08T21:02:00.330Z,95026.34
2023-03-08T21:06:55.101Z,95008.03
2023-03-08T21:11:51.128Z,95005.25
2023-03-08T21:16:44.809Z,95018.44
2023-03-08T21:21:40.591Z,95000.81
2023-03-08T21:26:35.745Z,94998.69
2023-03-08T21:31:31.177Z,94983.31
2023-03-08T21:36:25.642Z,94975.84
2023-03-08T21:41:21.336Z,94991.19
2023-03-08T21:46:14.749Z,94989.44
2023-03-08T21:51:10.449Z,94986.84
2023-03-08T21:56:04.113Z,94990.47
2023-03-08T22:00:57.884Z,95002.13
2023-03-08T22:05:51.504Z,95005.91
2023-03-08T22:10:46.447Z,95039.47
2023-03-08T22:15:39.999Z,95044.56
2023-03-08T22:20:33.333Z,95018.00
2023-03-08T22:25:26.703Z,95017.31
2023-03-08T22:30:21.874Z,95021.53
2023-03-08T22:35:16.971Z,95023.00
2023-03-08T22:40:13.124Z,95019.69
2023-03-08T22:45:08.373Z,94995.03
2023-03-08T22:50:03.983Z,94987.22
2023-03-08T22:54:58.007Z,94996.06
2023-03-08T22:59:51.391Z,94996.03
2023-03-08T23:04:44.779Z,94989.81
2023-03-08T23:09:39.686Z,94991.47
2023-03-08T23:14:33.317Z,94976.75
2023-03-08T23:19:26.811Z,94968.75
2023-03-08T23:24:21.227Z,94957.44
2023-03-08T23:29:16.490Z,94973.16
2023-03-08T23:34:10.000Z,94951.22
2023-03-08T23:39:04.180Z,94940.25
2023-03-08T23:44:00.418Z,94946.00
2023-03-08T23:48:58.780Z,94949.13
2023-03-08T23:53:54.268Z,94953.53
2023-03-08T23:58:51.021Z,94952.25
